Nha Trang, Viet Nam

12:00 AM ICT on February 11, 2016 (GMT +0700)
Cam Ranh Bay | | Change Station
CLOSE
Current Station
Airport
Location: Cam Ranh Bay,
Elevation: 39 ft
Nearby Weather Stations

Elev 39 ft 12.00 °N, 109.22 °E | Updated 30 minutes ago

Clear
Clear
75 °F
Feels Like 75 °F
N
2
Wind Variable Wind from WNW

Today
High -- | Low -- °F
--% Chance of Precip.
Yesterday
High -- | Low -- °F
Precip. -- in
Pressure 29.95 in
Visibility -9999.0 miles
Clouds
Dew Point 72 °F
Humidity 89%
Rainfall 0.00 in
Snow Depth Not available.
6:06 AM 5:48 PM
Waxing Crescent, 6% visible
METAR VVCR 101630Z 30002KT CAVOK 24/22 Q1014 NOSIG
Pressure 29.95 in
Visibility -9999.0 miles
Clouds
Dew Point 72 °F
Humidity 89%
Rainfall 0.00 in
Snow Depth Not available.
6:06 AM 5:48 PM
Waxing Crescent, 6% visible
METAR VVCR 101630Z 30002KT CAVOK 24/22 Q1014 NOSIG

10-Day Weather Forecast

No radar image for this location.
×

Almanac

Astronomy

Feb. 11, 2016 Rise Set
Actual Time
Civil Twilight
Nautical Twilight
Astronomical Twilight
Moon
Length of Visible Light
Length of Day
Tomorrow will be .
, % of the Moon is Illuminated

Today's Extremes

Country Highs Country Lows

Community

WunderPhotos

Upload Photos

1,891,891 photos uploaded!

WunderBlog® & News

Nearby

Air Quality

  Air Quality AQ Index Pollutant
Not available.

Snow Depth

Station Depth Elevation

Earthquake Activity

City Distance Mag. Time & Date
Minimum magnitude displayed is 2.5.

Coastal Water Temperatures

Place Temperature

Stations

Nearby Weather Stations

Station Location Temp. Windchill Dew Point Humidity Wind Precip. Elev Updated Type